sensor_id;sensor_type;location;lat;lon;timestamp;P1;durP1;ratioP1;P2;durP2;ratioP2
7195;SDS011;3639;51.308;5.624;2023-04-03T00:00:59;6.87;;;4.80;;
7195;SDS011;3639;51.308;5.624;2023-04-03T00:03:25;6.27;;;4.80;;
7195;SDS011;3639;51.308;5.624;2023-04-03T00:05:50;7.13;;;5.13;;
7195;SDS011;3639;51.308;5.624;2023-04-03T00:08:16;5.00;;;4.60;;
7195;SDS011;3639;51.308;5.624;2023-04-03T00:10:42;5.93;;;4.77;;
7195;SDS011;3639;51.308;5.624;2023-04-03T00:13:07;6.67;;;5.10;;
7195;SDS011;3639;51.308;5.624;2023-04-03T00:15:33;4.47;;;4.07;;
7195;SDS011;3639;51.308;5.624;2023-04-03T00:18:00;6.97;;;5.00;;
7195;SDS011;3639;51.308;5.624;2023-04-03T00:20:26;7.80;;;5.00;;
7195;SDS011;3639;51.308;5.624;2023-04-03T00:22:52;7.23;;;5.93;;
7195;SDS011;3639;51.308;5.624;2023-04-03T00:25:18;7.50;;;5.73;;
7195;SDS011;3639;51.308;5.624;2023-04-03T00:27:44;6.13;;;5.10;;
7195;SDS011;3639;51.308;5.624;2023-04-03T00:30:11;6.03;;;5.43;;
7195;SDS011;3639;51.308;5.624;2023-04-03T00:32:39;7.60;;;4.77;;
7195;SDS011;3639;51.308;5.624;2023-04-03T00:35:05;6.37;;;5.10;;
7195;SDS011;3639;51.308;5.624;2023-04-03T00:37:32;5.60;;;5.10;;
7195;SDS011;3639;51.308;5.624;2023-04-03T00:39:57;5.50;;;5.00;;
7195;SDS011;3639;51.308;5.624;2023-04-03T00:42:23;6.07;;;5.47;;
7195;SDS011;3639;51.308;5.624;2023-04-03T00:47:17;5.60;;;5.10;;
7195;SDS011;3639;51.308;5.624;2023-04-03T00:49:43;6.80;;;6.13;;
7195;SDS011;3639;51.308;5.624;2023-04-03T00:52:11;8.00;;;5.87;;
7195;SDS011;3639;51.308;5.624;2023-04-03T00:54:41;5.97;;;5.20;;
7195;SDS011;3639;51.308;5.624;2023-04-03T00:57:08;7.93;;;5.60;;
7195;SDS011;3639;51.308;5.624;2023-04-03T00:59:36;5.90;;;5.30;;
7195;SDS011;3639;51.308;5.624;2023-04-03T01:02:07;8.97;;;5.40;;
7195;SDS011;3639;51.308;5.624;2023-04-03T01:04:37;6.27;;;5.63;;
7195;SDS011;3639;51.308;5.624;2023-04-03T01:09:35;5.93;;;5.33;;
7195;SDS011;3639;51.308;5.624;2023-04-03T01:14:53;5.97;;;5.37;;
7195;SDS011;3639;51.308;5.624;2023-04-03T01:17:43;6.53;;;5.40;;
7195;SDS011;3639;51.308;5.624;2023-04-03T01:25:48;6.30;;;5.70;;
7195;SDS011;3639;51.308;5.624;2023-04-03T01:28:16;8.23;;;5.80;;
7195;SDS011;3639;51.308;5.624;2023-04-03T01:30:45;6.57;;;5.53;;
7195;SDS011;3639;51.308;5.624;2023-04-03T01:33:19;7.37;;;5.63;;
7195;SDS011;3639;51.308;5.624;2023-04-03T01:35:45;9.13;;;6.67;;
7195;SDS011;3639;51.308;5.624;2023-04-03T01:38:10;11.00;;;6.90;;
7195;SDS011;3639;51.308;5.624;2023-04-03T01:40:36;6.97;;;6.00;;
7195;SDS011;3639;51.308;5.624;2023-04-03T01:43:02;7.07;;;6.20;;
7195;SDS011;3639;51.308;5.624;2023-04-03T01:45:28;6.37;;;5.80;;
7195;SDS011;3639;51.308;5.624;2023-04-03T01:47:53;6.80;;;6.10;;
7195;SDS011;3639;51.308;5.624;2023-04-03T01:50:19;7.10;;;6.27;;
7195;SDS011;3639;51.308;5.624;2023-04-03T01:52:45;10.07;;;6.57;;
7195;SDS011;3639;51.308;5.624;2023-04-03T01:55:11;12.10;;;6.47;;
7195;SDS011;3639;51.308;5.624;2023-04-03T01:57:36;7.00;;;6.30;;
7195;SDS011;3639;51.308;5.624;2023-04-03T02:00:02;10.27;;;6.77;;
7195;SDS011;3639;51.308;5.624;2023-04-03T02:02:28;7.17;;;6.47;;
7195;SDS011;3639;51.308;5.624;2023-04-03T02:04:54;7.57;;;6.73;;
7195;SDS011;3639;51.308;5.624;2023-04-03T02:07:20;7.20;;;6.50;;
7195;SDS011;3639;51.308;5.624;2023-04-03T02:09:45;7.47;;;6.67;;
7195;SDS011;3639;51.308;5.624;2023-04-03T02:12:11;8.90;;;6.83;;
7195;SDS011;3639;51.308;5.624;2023-04-03T02:14:38;9.90;;;7.37;;
7195;SDS011;3639;51.308;5.624;2023-04-03T02:17:03;9.30;;;6.17;;
7195;SDS011;3639;51.308;5.624;2023-04-03T02:19:33;7.93;;;6.23;;
7195;SDS011;3639;51.308;5.624;2023-04-03T02:22:00;8.67;;;6.87;;
7195;SDS011;3639;51.308;5.624;2023-04-03T02:24:26;7.50;;;6.40;;
7195;SDS011;3639;51.308;5.624;2023-04-03T02:26:52;7.67;;;6.20;;
7195;SDS011;3639;51.308;5.624;2023-04-03T02:29:18;6.87;;;6.20;;
7195;SDS011;3639;51.308;5.624;2023-04-03T02:31:43;7.23;;;6.53;;
7195;SDS011;3639;51.308;5.624;2023-04-03T02:34:09;7.53;;;6.10;;
7195;SDS011;3639;51.308;5.624;2023-04-03T02:36:35;8.07;;;6.10;;
7195;SDS011;3639;51.308;5.624;2023-04-03T02:39:00;7.90;;;6.40;;
7195;SDS011;3639;51.308;5.624;2023-04-03T02:41:26;7.07;;;6.07;;
7195;SDS011;3639;51.308;5.624;2023-04-03T02:44:00;7.87;;;6.23;;
7195;SDS011;3639;51.308;5.624;2023-04-03T02:46:26;9.40;;;6.43;;
7195;SDS011;3639;51.308;5.624;2023-04-03T02:48:52;7.60;;;6.40;;
7195;SDS011;3639;51.308;5.624;2023-04-03T02:51:17;11.13;;;6.30;;
7195;SDS011;3639;51.308;5.624;2023-04-03T02:53:43;6.83;;;6.13;;
7195;SDS011;3639;51.308;5.624;2023-04-03T02:56:09;10.17;;;6.00;;
7195;SDS011;3639;51.308;5.624;2023-04-03T02:58:34;7.63;;;6.83;;
7195;SDS011;3639;51.308;5.624;2023-04-03T03:01:00;8.63;;;6.77;;
7195;SDS011;3639;51.308;5.624;2023-04-03T03:03:26;8.73;;;6.40;;
7195;SDS011;3639;51.308;5.624;2023-04-03T03:06:08;8.77;;;7.00;;
7195;SDS011;3639;51.308;5.624;2023-04-03T03:08:35;11.50;;;7.37;;
7195;SDS011;3639;51.308;5.624;2023-04-03T03:11:02;8.40;;;7.63;;
7195;SDS011;3639;51.308;5.624;2023-04-03T03:13:28;12.53;;;7.73;;
7195;SDS011;3639;51.308;5.624;2023-04-03T03:15:54;9.17;;;7.53;;
7195;SDS011;3639;51.308;5.624;2023-04-03T03:18:20;10.53;;;7.40;;
7195;SDS011;3639;51.308;5.624;2023-04-03T03:20:46;8.97;;;7.27;;
7195;SDS011;3639;51.308;5.624;2023-04-03T03:23:11;8.83;;;7.43;;
7195;SDS011;3639;51.308;5.624;2023-04-03T03:25:38;9.63;;;7.20;;
7195;SDS011;3639;51.308;5.624;2023-04-03T03:28:04;10.77;;;7.77;;
7195;SDS011;3639;51.308;5.624;2023-04-03T03:30:30;8.57;;;7.73;;
7195;SDS011;3639;51.308;5.624;2023-04-03T03:32:56;8.27;;;7.37;;
7195;SDS011;3639;51.308;5.624;2023-04-03T03:35:22;11.60;;;7.07;;
7195;SDS011;3639;51.308;5.624;2023-04-03T03:37:47;14.73;;;6.70;;
7195;SDS011;3639;51.308;5.624;2023-04-03T03:40:13;7.80;;;7.03;;
7195;SDS011;3639;51.308;5.624;2023-04-03T03:42:39;14.70;;;8.53;;
7195;SDS011;3639;51.308;5.624;2023-04-03T03:45:05;10.10;;;7.73;;
7195;SDS011;3639;51.308;5.624;2023-04-03T03:47:31;7.67;;;6.47;;
7195;SDS011;3639;51.308;5.624;2023-04-03T03:49:57;9.10;;;7.30;;
7195;SDS011;3639;51.308;5.624;2023-04-03T03:52:22;12.30;;;8.03;;
7195;SDS011;3639;51.308;5.624;2023-04-03T03:54:48;13.73;;;8.47;;
7195;SDS011;3639;51.308;5.624;2023-04-03T03:57:14;10.87;;;7.37;;
7195;SDS011;3639;51.308;5.624;2023-04-03T03:59:40;8.80;;;7.57;;
7195;SDS011;3639;51.308;5.624;2023-04-03T04:02:06;16.47;;;8.03;;
7195;SDS011;3639;51.308;5.624;2023-04-03T04:04:32;8.23;;;7.13;;
7195;SDS011;3639;51.308;5.624;2023-04-03T04:06:58;9.30;;;7.00;;
7195;SDS011;3639;51.308;5.624;2023-04-03T04:09:25;8.03;;;7.17;;
7195;SDS011;3639;51.308;5.624;2023-04-03T04:11:51;7.77;;;7.03;;
7195;SDS011;3639;51.308;5.624;2023-04-03T04:14:17;11.70;;;7.63;;
7195;SDS011;3639;51.308;5.624;2023-04-03T04:16:45;8.67;;;7.77;;
7195;SDS011;3639;51.308;5.624;2023-04-03T04:19:11;7.70;;;6.73;;
7195;SDS011;3639;51.308;5.624;2023-04-03T04:21:37;8.50;;;7.30;;
7195;SDS011;3639;51.308;5.624;2023-04-03T04:24:03;10.33;;;7.37;;
7195;SDS011;3639;51.308;5.624;2023-04-03T04:26:29;13.27;;;6.67;;
7195;SDS011;3639;51.308;5.624;2023-04-03T04:28:54;7.70;;;6.53;;
7195;SDS011;3639;51.308;5.624;2023-04-03T04:31:20;12.20;;;7.30;;
7195;SDS011;3639;51.308;5.624;2023-04-03T04:33:46;8.23;;;7.07;;
7195;SDS011;3639;51.308;5.624;2023-04-03T04:36:11;8.77;;;6.83;;
7195;SDS011;3639;51.308;5.624;2023-04-03T04:38:37;7.83;;;6.80;;
7195;SDS011;3639;51.308;5.624;2023-04-03T04:41:03;10.60;;;6.83;;
7195;SDS011;3639;51.308;5.624;2023-04-03T04:43:29;11.43;;;6.73;;
7195;SDS011;3639;51.308;5.624;2023-04-03T04:46:02;9.83;;;7.37;;
7195;SDS011;3639;51.308;5.624;2023-04-03T04:48:29;9.57;;;6.50;;
7195;SDS011;3639;51.308;5.624;2023-04-03T04:50:54;9.43;;;6.87;;
7195;SDS011;3639;51.308;5.624;2023-04-03T04:53:20;7.67;;;6.97;;
7195;SDS011;3639;51.308;5.624;2023-04-03T04:55:46;7.50;;;6.20;;
7195;SDS011;3639;51.308;5.624;2023-04-03T04:58:11;7.90;;;7.10;;
7195;SDS011;3639;51.308;5.624;2023-04-03T05:00:37;11.93;;;6.13;;
7195;SDS011;3639;51.308;5.624;2023-04-03T05:03:03;6.03;;;5.43;;
7195;SDS011;3639;51.308;5.624;2023-04-03T05:05:28;5.90;;;5.40;;
7195;SDS011;3639;51.308;5.624;2023-04-03T05:07:54;10.17;;;6.47;;
7195;SDS011;3639;51.308;5.624;2023-04-03T05:10:20;7.33;;;5.80;;
7195;SDS011;3639;51.308;5.624;2023-04-03T05:12:45;8.70;;;5.17;;
7195;SDS011;3639;51.308;5.624;2023-04-03T05:15:11;7.77;;;5.53;;
7195;SDS011;3639;51.308;5.624;2023-04-03T05:17:37;9.97;;;5.10;;
7195;SDS011;3639;51.308;5.624;2023-04-03T05:20:03;7.10;;;5.30;;
7195;SDS011;3639;51.308;5.624;2023-04-03T05:22:30;7.67;;;6.03;;
7195;SDS011;3639;51.308;5.624;2023-04-03T05:24:56;9.50;;;5.93;;
7195;SDS011;3639;51.308;5.624;2023-04-03T05:27:21;7.43;;;5.10;;
7195;SDS011;3639;51.308;5.624;2023-04-03T05:29:53;6.03;;;4.83;;
7195;SDS011;3639;51.308;5.624;2023-04-03T05:32:19;8.97;;;5.50;;
7195;SDS011;3639;51.308;5.624;2023-04-03T05:34:45;9.57;;;5.20;;
7195;SDS011;3639;51.308;5.624;2023-04-03T05:37:11;8.07;;;5.40;;
7195;SDS011;3639;51.308;5.624;2023-04-03T05:39:36;10.43;;;5.27;;
7195;SDS011;3639;51.308;5.624;2023-04-03T05:42:03;6.33;;;4.83;;
7195;SDS011;3639;51.308;5.624;2023-04-03T05:44:29;10.23;;;5.67;;
7195;SDS011;3639;51.308;5.624;2023-04-03T05:46:55;5.53;;;4.73;;
7195;SDS011;3639;51.308;5.624;2023-04-03T05:49:20;6.50;;;5.07;;
7195;SDS011;3639;51.308;5.624;2023-04-03T05:51:46;5.17;;;4.60;;
7195;SDS011;3639;51.308;5.624;2023-04-03T05:56:40;9.30;;;4.73;;
7195;SDS011;3639;51.308;5.624;2023-04-03T05:59:06;14.97;;;5.33;;
7195;SDS011;3639;51.308;5.624;2023-04-03T06:01:32;5.30;;;4.80;;
7195;SDS011;3639;51.308;5.624;2023-04-03T06:03:59;12.57;;;6.47;;
7195;SDS011;3639;51.308;5.624;2023-04-03T06:06:24;23.20;;;13.33;;
7195;SDS011;3639;51.308;5.624;2023-04-03T06:08:50;10.83;;;6.57;;
7195;SDS011;3639;51.308;5.624;2023-04-03T06:11:16;18.87;;;11.03;;
7195;SDS011;3639;51.308;5.624;2023-04-03T06:13:42;9.50;;;8.20;;
7195;SDS011;3639;51.308;5.624;2023-04-03T06:16:09;8.63;;;6.47;;
7195;SDS011;3639;51.308;5.624;2023-04-03T06:18:40;7.07;;;5.80;;
7195;SDS011;3639;51.308;5.624;2023-04-03T06:21:06;6.17;;;5.00;;
7195;SDS011;3639;51.308;5.624;2023-04-03T06:23:32;5.30;;;4.80;;
7195;SDS011;3639;51.308;5.624;2023-04-03T06:25:58;9.40;;;5.27;;
7195;SDS011;3639;51.308;5.624;2023-04-03T06:28:24;6.77;;;4.83;;
7195;SDS011;3639;51.308;5.624;2023-04-03T06:30:50;5.67;;;4.53;;
7195;SDS011;3639;51.308;5.624;2023-04-03T06:33:16;8.70;;;4.67;;
7195;SDS011;3639;51.308;5.624;2023-04-03T06:35:41;9.03;;;4.30;;
7195;SDS011;3639;51.308;5.624;2023-04-03T06:38:07;5.77;;;3.83;;
7195;SDS011;3639;51.308;5.624;2023-04-03T06:40:34;5.30;;;4.53;;
7195;SDS011;3639;51.308;5.624;2023-04-03T06:43:00;5.97;;;4.17;;
7195;SDS011;3639;51.308;5.624;2023-04-03T06:45:26;4.00;;;3.60;;
7195;SDS011;3639;51.308;5.624;2023-04-03T06:47:52;7.47;;;4.37;;
7195;SDS011;3639;51.308;5.624;2023-04-03T06:50:18;8.53;;;4.30;;
7195;SDS011;3639;51.308;5.624;2023-04-03T06:52:44;4.43;;;4.03;;
7195;SDS011;3639;51.308;5.624;2023-04-03T06:55:10;6.00;;;3.73;;
7195;SDS011;3639;51.308;5.624;2023-04-03T06:57:36;6.77;;;4.20;;
7195;SDS011;3639;51.308;5.624;2023-04-03T07:00:03;7.33;;;4.30;;
7195;SDS011;3639;51.308;5.624;2023-04-03T07:02:30;5.47;;;3.37;;
7195;SDS011;3639;51.308;5.624;2023-04-03T07:04:55;4.13;;;3.70;;
7195;SDS011;3639;51.308;5.624;2023-04-03T07:07:21;4.07;;;3.50;;
7195;SDS011;3639;51.308;5.624;2023-04-03T07:09:47;10.60;;;3.57;;
7195;SDS011;3639;51.308;5.624;2023-04-03T07:12:13;6.23;;;4.17;;
7195;SDS011;3639;51.308;5.624;2023-04-03T07:14:39;7.10;;;3.83;;
7195;SDS011;3639;51.308;5.624;2023-04-03T07:17:04;9.27;;;3.90;;
7195;SDS011;3639;51.308;5.624;2023-04-03T07:19:30;5.83;;;3.90;;
7195;SDS011;3639;51.308;5.624;2023-04-03T07:21:56;3.23;;;2.93;;
7195;SDS011;3639;51.308;5.624;2023-04-03T07:24:22;7.83;;;3.80;;
7195;SDS011;3639;51.308;5.624;2023-04-03T07:26:51;7.23;;;3.30;;
7195;SDS011;3639;51.308;5.624;2023-04-03T07:29:18;8.67;;;3.40;;
7195;SDS011;3639;51.308;5.624;2023-04-03T07:31:46;3.73;;;2.90;;
7195;SDS011;3639;51.308;5.624;2023-04-03T07:34:12;6.87;;;3.53;;
7195;SDS011;3639;51.308;5.624;2023-04-03T07:36:38;6.17;;;3.27;;
7195;SDS011;3639;51.308;5.624;2023-04-03T07:39:04;4.90;;;3.00;;
7195;SDS011;3639;51.308;5.624;2023-04-03T07:41:29;4.60;;;3.13;;
7195;SDS011;3639;51.308;5.624;2023-04-03T07:43:55;3.33;;;2.80;;
7195;SDS011;3639;51.308;5.624;2023-04-03T07:46:21;5.50;;;3.13;;
7195;SDS011;3639;51.308;5.624;2023-04-03T07:48:47;3.30;;;3.00;;
7195;SDS011;3639;51.308;5.624;2023-04-03T07:51:13;3.97;;;2.90;;
7195;SDS011;3639;51.308;5.624;2023-04-03T07:53:39;7.60;;;3.43;;
7195;SDS011;3639;51.308;5.624;2023-04-03T07:56:06;8.37;;;3.20;;
7195;SDS011;3639;51.308;5.624;2023-04-03T07:58:32;4.50;;;3.40;;
7195;SDS011;3639;51.308;5.624;2023-04-03T08:00:58;3.93;;;2.73;;
7195;SDS011;3639;51.308;5.624;2023-04-03T08:03:24;4.77;;;3.13;;
7195;SDS011;3639;51.308;5.624;2023-04-03T08:05:50;4.77;;;3.03;;
7195;SDS011;3639;51.308;5.624;2023-04-03T08:08:17;5.33;;;2.80;;
7195;SDS011;3639;51.308;5.624;2023-04-03T08:10:47;5.87;;;2.60;;
7195;SDS011;3639;51.308;5.624;2023-04-03T08:13:17;5.97;;;3.00;;
7195;SDS011;3639;51.308;5.624;2023-04-03T08:15:43;4.73;;;3.03;;
7195;SDS011;3639;51.308;5.624;2023-04-03T08:18:09;4.97;;;2.70;;
7195;SDS011;3639;51.308;5.624;2023-04-03T08:20:35;4.60;;;2.83;;
7195;SDS011;3639;51.308;5.624;2023-04-03T08:23:02;6.53;;;3.27;;
7195;SDS011;3639;51.308;5.624;2023-04-03T08:25:28;10.23;;;3.00;;
7195;SDS011;3639;51.308;5.624;2023-04-03T08:27:54;7.03;;;3.20;;
7195;SDS011;3639;51.308;5.624;2023-04-03T08:30:20;10.90;;;3.07;;
7195;SDS011;3639;51.308;5.624;2023-04-03T08:32:46;3.83;;;2.23;;
7195;SDS011;3639;51.308;5.624;2023-04-03T08:35:12;5.80;;;2.80;;
7195;SDS011;3639;51.308;5.624;2023-04-03T08:37:38;3.03;;;2.30;;
7195;SDS011;3639;51.308;5.624;2023-04-03T08:40:05;2.70;;;2.40;;
7195;SDS011;3639;51.308;5.624;2023-04-03T08:45:45;2.40;;;2.20;;
7195;SDS011;3639;51.308;5.624;2023-04-03T08:48:20;4.20;;;3.03;;
7195;SDS011;3639;51.308;5.624;2023-04-03T08:51:00;7.33;;;3.00;;
7195;SDS011;3639;51.308;5.624;2023-04-03T08:53:32;4.57;;;2.60;;
7195;SDS011;3639;51.308;5.624;2023-04-03T08:56:02;5.83;;;2.50;;
7195;SDS011;3639;51.308;5.624;2023-04-03T08:59:17;5.23;;;2.83;;
7195;SDS011;3639;51.308;5.624;2023-04-03T09:01:38;3.10;;;2.57;;
7195;SDS011;3639;51.308;5.624;2023-04-03T09:04:15;4.23;;;2.87;;
7195;SDS011;3639;51.308;5.624;2023-04-03T09:06:44;2.90;;;2.70;;
7195;SDS011;3639;51.308;5.624;2023-04-03T09:09:15;3.93;;;2.60;;
7195;SDS011;3639;51.308;5.624;2023-04-03T09:12:04;7.73;;;3.20;;
7195;SDS011;3639;51.308;5.624;2023-04-03T09:22:51;3.90;;;2.50;;
7195;SDS011;3639;51.308;5.624;2023-04-03T09:25:23;5.07;;;3.50;;
7195;SDS011;3639;51.308;5.624;2023-04-03T09:27:54;7.80;;;4.20;;
7195;SDS011;3639;51.308;5.624;2023-04-03T09:30:23;3.33;;;2.20;;
7195;SDS011;3639;51.308;5.624;2023-04-03T09:32:55;5.73;;;3.40;;
7195;SDS011;3639;51.308;5.624;2023-04-03T09:35:25;3.77;;;2.60;;
7195;SDS011;3639;51.308;5.624;2023-04-03T09:38:13;5.20;;;2.30;;
7195;SDS011;3639;51.308;5.624;2023-04-03T09:40:44;4.33;;;2.30;;
7195;SDS011;3639;51.308;5.624;2023-04-03T09:43:20;4.20;;;2.90;;
7195;SDS011;3639;51.308;5.624;2023-04-03T09:45:56;2.80;;;2.20;;
7195;SDS011;3639;51.308;5.624;2023-04-03T09:48:52;2.03;;;1.93;;
7195;SDS011;3639;51.308;5.624;2023-04-03T09:51:24;3.20;;;1.70;;
7195;SDS011;3639;51.308;5.624;2023-04-03T09:53:52;2.50;;;2.30;;
7195;SDS011;3639;51.308;5.624;2023-04-03T09:56:20;3.20;;;1.90;;
7195;SDS011;3639;51.308;5.624;2023-04-03T09:59:08;3.83;;;2.07;;
7195;SDS011;3639;51.308;5.624;2023-04-03T10:01:42;1.97;;;1.87;;
7195;SDS011;3639;51.308;5.624;2023-04-03T10:04:21;3.60;;;2.00;;
7195;SDS011;3639;51.308;5.624;2023-04-03T10:06:51;3.40;;;2.10;;
7195;SDS011;3639;51.308;5.624;2023-04-03T10:11:59;2.80;;;2.37;;
7195;SDS011;3639;51.308;5.624;2023-04-03T10:14:26;3.23;;;2.20;;
7195;SDS011;3639;51.308;5.624;2023-04-03T10:17:09;1.93;;;1.70;;
7195;SDS011;3639;51.308;5.624;2023-04-03T10:20:27;3.80;;;1.87;;
7195;SDS011;3639;51.308;5.624;2023-04-03T10:25:43;3.10;;;2.00;;
7195;SDS011;3639;51.308;5.624;2023-04-03T10:31:14;1.40;;;1.30;;
7195;SDS011;3639;51.308;5.624;2023-04-03T10:34:18;1.83;;;1.73;;
7195;SDS011;3639;51.308;5.624;2023-04-03T10:37:00;3.37;;;1.80;;
7195;SDS011;3639;51.308;5.624;2023-04-03T10:50:54;4.20;;;2.17;;
7195;SDS011;3639;51.308;5.624;2023-04-03T11:01:44;1.90;;;1.80;;
7195;SDS011;3639;51.308;5.624;2023-04-03T11:04:13;3.70;;;2.47;;
7195;SDS011;3639;51.308;5.624;2023-04-03T11:06:48;4.40;;;2.17;;
7195;SDS011;3639;51.308;5.624;2023-04-03T11:09:24;2.80;;;1.97;;
7195;SDS011;3639;51.308;5.624;2023-04-03T11:11:55;4.50;;;1.60;;
7195;SDS011;3639;51.308;5.624;2023-04-03T11:14:32;3.00;;;1.70;;
7195;SDS011;3639;51.308;5.624;2023-04-03T11:20:14;3.77;;;2.03;;
7195;SDS011;3639;51.308;5.624;2023-04-03T11:27:44;1.93;;;1.67;;
7195;SDS011;3639;51.308;5.624;2023-04-03T11:35:53;2.43;;;1.83;;
7195;SDS011;3639;51.308;5.624;2023-04-03T11:38:33;3.60;;;1.90;;
7195;SDS011;3639;51.308;5.624;2023-04-03T11:41:04;2.67;;;1.63;;
7195;SDS011;3639;51.308;5.624;2023-04-03T11:43:32;2.07;;;1.57;;
7195;SDS011;3639;51.308;5.624;2023-04-03T11:46:05;2.17;;;1.83;;
7195;SDS011;3639;51.308;5.624;2023-04-03T11:51:01;1.67;;;1.57;;
7195;SDS011;3639;51.308;5.624;2023-04-03T11:53:47;3.80;;;1.60;;
7195;SDS011;3639;51.308;5.624;2023-04-03T11:59:14;2.67;;;1.60;;
7195;SDS011;3639;51.308;5.624;2023-04-03T12:04:17;1.70;;;1.60;;
7195;SDS011;3639;51.308;5.624;2023-04-03T12:09:32;3.17;;;1.80;;
7195;SDS011;3639;51.308;5.624;2023-04-03T12:20:56;1.60;;;1.50;;
7195;SDS011;3639;51.308;5.624;2023-04-03T12:25:50;1.40;;;1.30;;
7195;SDS011;3639;51.308;5.624;2023-04-03T12:28:16;2.20;;;1.67;;
7195;SDS011;3639;51.308;5.624;2023-04-03T12:30:43;1.50;;;1.40;;
7195;SDS011;3639;51.308;5.624;2023-04-03T12:35:54;1.60;;;1.50;;
7195;SDS011;3639;51.308;5.624;2023-04-03T12:38:40;3.07;;;1.93;;
7195;SDS011;3639;51.308;5.624;2023-04-03T12:41:43;3.50;;;1.80;;
7195;SDS011;3639;51.308;5.624;2023-04-03T12:44:35;2.40;;;2.20;;
7195;SDS011;3639;51.308;5.624;2023-04-03T12:50:03;1.73;;;1.63;;
7195;SDS011;3639;51.308;5.624;2023-04-03T12:52:51;1.63;;;1.53;;
7195;SDS011;3639;51.308;5.624;2023-04-03T12:55:21;3.33;;;1.93;;
7195;SDS011;3639;51.308;5.624;2023-04-03T12:57:47;2.00;;;1.90;;
7195;SDS011;3639;51.308;5.624;2023-04-03T13:00:32;1.50;;;1.40;;
7195;SDS011;3639;51.308;5.624;2023-04-03T13:03:01;2.53;;;1.60;;
7195;SDS011;3639;51.308;5.624;2023-04-03T13:05:30;1.90;;;1.80;;
7195;SDS011;3639;51.308;5.624;2023-04-03T13:08:01;2.93;;;1.90;;
7195;SDS011;3639;51.308;5.624;2023-04-03T13:10:29;2.90;;;1.70;;
7195;SDS011;3639;51.308;5.624;2023-04-03T13:12:57;3.63;;;1.90;;
7195;SDS011;3639;51.308;5.624;2023-04-03T13:15:39;5.33;;;1.80;;
7195;SDS011;3639;51.308;5.624;2023-04-03T13:20:53;2.00;;;1.80;;
7195;SDS011;3639;51.308;5.624;2023-04-03T13:23:34;1.73;;;1.57;;
7195;SDS011;3639;51.308;5.624;2023-04-03T13:26:03;3.50;;;2.03;;
7195;SDS011;3639;51.308;5.624;2023-04-03T13:28:30;8.93;;;1.80;;
7195;SDS011;3639;51.308;5.624;2023-04-03T13:31:06;3.93;;;2.30;;
7195;SDS011;3639;51.308;5.624;2023-04-03T13:33:54;1.73;;;1.57;;
7195;SDS011;3639;51.308;5.624;2023-04-03T13:36:26;2.23;;;1.53;;
7195;SDS011;3639;51.308;5.624;2023-04-03T13:39:00;3.53;;;1.90;;
7195;SDS011;3639;51.308;5.624;2023-04-03T13:41:47;2.40;;;2.10;;
7195;SDS011;3639;51.308;5.624;2023-04-03T13:44:36;2.23;;;1.80;;
7195;SDS011;3639;51.308;5.624;2023-04-03T13:52:02;1.90;;;1.73;;
7195;SDS011;3639;51.308;5.624;2023-04-03T13:54:47;2.50;;;1.67;;
7195;SDS011;3639;51.308;5.624;2023-04-03T13:57:16;2.63;;;1.70;;
7195;SDS011;3639;51.308;5.624;2023-04-03T13:59:42;3.37;;;2.00;;
7195;SDS011;3639;51.308;5.624;2023-04-03T14:07:02;2.57;;;2.20;;
7195;SDS011;3639;51.308;5.624;2023-04-03T14:09:28;1.67;;;1.57;;
7195;SDS011;3639;51.308;5.624;2023-04-03T14:12:04;2.60;;;2.10;;
7195;SDS011;3639;51.308;5.624;2023-04-03T14:14:33;4.10;;;1.90;;
7195;SDS011;3639;51.308;5.624;2023-04-03T14:17:03;2.40;;;2.20;;
7195;SDS011;3639;51.308;5.624;2023-04-03T14:19:38;2.30;;;1.97;;
7195;SDS011;3639;51.308;5.624;2023-04-03T14:22:16;4.00;;;2.10;;
7195;SDS011;3639;51.308;5.624;2023-04-03T14:24:44;3.90;;;2.23;;
7195;SDS011;3639;51.308;5.624;2023-04-03T14:30:11;3.07;;;2.10;;
7195;SDS011;3639;51.308;5.624;2023-04-03T14:32:42;3.10;;;2.10;;
7195;SDS011;3639;51.308;5.624;2023-04-03T14:35:08;2.73;;;2.13;;
7195;SDS011;3639;51.308;5.624;2023-04-03T14:37:34;3.57;;;3.23;;
7195;SDS011;3639;51.308;5.624;2023-04-03T14:40:01;2.50;;;2.10;;
7195;SDS011;3639;51.308;5.624;2023-04-03T14:42:30;4.33;;;2.30;;
7195;SDS011;3639;51.308;5.624;2023-04-03T14:44:58;3.17;;;1.80;;
7195;SDS011;3639;51.308;5.624;2023-04-03T14:47:26;2.20;;;1.83;;
7195;SDS011;3639;51.308;5.624;2023-04-03T14:49:53;2.73;;;2.00;;
7195;SDS011;3639;51.308;5.624;2023-04-03T14:52:26;3.27;;;1.90;;
7195;SDS011;3639;51.308;5.624;2023-04-03T14:54:57;4.80;;;1.90;;
7195;SDS011;3639;51.308;5.624;2023-04-03T14:57:25;3.37;;;2.10;;
7195;SDS011;3639;51.308;5.624;2023-04-03T14:59:53;3.17;;;2.20;;
7195;SDS011;3639;51.308;5.624;2023-04-03T15:02:24;1.93;;;1.80;;
7195;SDS011;3639;51.308;5.624;2023-04-03T15:05:01;2.40;;;1.90;;
7195;SDS011;3639;51.308;5.624;2023-04-03T15:07:29;2.47;;;1.83;;
7195;SDS011;3639;51.308;5.624;2023-04-03T15:10:00;2.27;;;2.07;;
7195;SDS011;3639;51.308;5.624;2023-04-03T15:12:31;2.83;;;2.00;;
7195;SDS011;3639;51.308;5.624;2023-04-03T15:14:57;2.60;;;1.90;;
7195;SDS011;3639;51.308;5.624;2023-04-03T15:17:22;2.13;;;1.77;;
7195;SDS011;3639;51.308;5.624;2023-04-03T15:19:49;3.13;;;2.23;;
7195;SDS011;3639;51.308;5.624;2023-04-03T15:22:15;1.80;;;1.70;;
7195;SDS011;3639;51.308;5.624;2023-04-03T15:24:42;2.00;;;1.83;;
7195;SDS011;3639;51.308;5.624;2023-04-03T15:27:09;3.33;;;2.10;;
7195;SDS011;3639;51.308;5.624;2023-04-03T15:29:37;3.23;;;1.90;;
7195;SDS011;3639;51.308;5.624;2023-04-03T15:32:03;2.10;;;1.90;;
7195;SDS011;3639;51.308;5.624;2023-04-03T15:34:29;3.30;;;2.50;;
7195;SDS011;3639;51.308;5.624;2023-04-03T15:36:56;3.57;;;1.80;;
7195;SDS011;3639;51.308;5.624;2023-04-03T15:39:22;5.43;;;2.30;;
7195;SDS011;3639;51.308;5.624;2023-04-03T15:41:48;5.30;;;3.93;;
7195;SDS011;3639;51.308;5.624;2023-04-03T15:44:14;12.93;;;9.63;;
7195;SDS011;3639;51.308;5.624;2023-04-03T15:46:42;3.30;;;3.00;;
7195;SDS011;3639;51.308;5.624;2023-04-03T15:49:13;4.50;;;2.10;;
7195;SDS011;3639;51.308;5.624;2023-04-03T15:51:39;2.70;;;1.90;;
7195;SDS011;3639;51.308;5.624;2023-04-03T15:54:05;2.90;;;2.00;;
7195;SDS011;3639;51.308;5.624;2023-04-03T15:56:31;2.70;;;1.90;;
7195;SDS011;3639;51.308;5.624;2023-04-03T15:58:57;2.17;;;1.97;;
7195;SDS011;3639;51.308;5.624;2023-04-03T16:01:22;3.07;;;2.10;;
7195;SDS011;3639;51.308;5.624;2023-04-03T16:03:48;4.43;;;2.13;;
7195;SDS011;3639;51.308;5.624;2023-04-03T16:06:14;3.77;;;2.23;;
7195;SDS011;3639;51.308;5.624;2023-04-03T16:08:41;3.20;;;1.80;;
7195;SDS011;3639;51.308;5.624;2023-04-03T16:11:08;2.73;;;1.87;;
7195;SDS011;3639;51.308;5.624;2023-04-03T16:13:34;2.63;;;1.90;;
7195;SDS011;3639;51.308;5.624;2023-04-03T16:16:00;2.60;;;1.90;;
7195;SDS011;3639;51.308;5.624;2023-04-03T16:18:27;4.63;;;1.97;;
7195;SDS011;3639;51.308;5.624;2023-04-03T16:20:53;3.37;;;1.90;;
7195;SDS011;3639;51.308;5.624;2023-04-03T16:23:20;2.00;;;1.80;;
7195;SDS011;3639;51.308;5.624;2023-04-03T16:25:46;5.57;;;1.80;;
7195;SDS011;3639;51.308;5.624;2023-04-03T16:28:13;3.53;;;2.20;;
7195;SDS011;3639;51.308;5.624;2023-04-03T16:30:40;4.57;;;2.13;;
7195;SDS011;3639;51.308;5.624;2023-04-03T16:33:06;2.07;;;1.87;;
7195;SDS011;3639;51.308;5.624;2023-04-03T16:35:31;3.07;;;2.20;;
7195;SDS011;3639;51.308;5.624;2023-04-03T16:37:57;2.00;;;1.90;;
7195;SDS011;3639;51.308;5.624;2023-04-03T16:40:23;4.33;;;2.40;;
7195;SDS011;3639;51.308;5.624;2023-04-03T16:42:48;5.17;;;2.13;;
7195;SDS011;3639;51.308;5.624;2023-04-03T16:45:14;4.63;;;2.00;;
7195;SDS011;3639;51.308;5.624;2023-04-03T16:47:40;2.57;;;2.00;;
7195;SDS011;3639;51.308;5.624;2023-04-03T16:50:06;2.67;;;1.90;;
7195;SDS011;3639;51.308;5.624;2023-04-03T16:52:32;4.07;;;1.80;;
7195;SDS011;3639;51.308;5.624;2023-04-03T16:54:57;2.83;;;1.77;;
7195;SDS011;3639;51.308;5.624;2023-04-03T16:57:24;2.87;;;2.00;;
7195;SDS011;3639;51.308;5.624;2023-04-03T16:59:50;5.83;;;2.30;;
7195;SDS011;3639;51.308;5.624;2023-04-03T17:02:17;4.43;;;1.97;;
7195;SDS011;3639;51.308;5.624;2023-04-03T17:04:43;4.43;;;2.73;;
7195;SDS011;3639;51.308;5.624;2023-04-03T17:07:09;3.13;;;2.07;;
7195;SDS011;3639;51.308;5.624;2023-04-03T17:09:35;2.03;;;1.73;;
7195;SDS011;3639;51.308;5.624;2023-04-03T17:12:00;2.13;;;1.97;;
7195;SDS011;3639;51.308;5.624;2023-04-03T17:14:27;2.40;;;2.00;;
7195;SDS011;3639;51.308;5.624;2023-04-03T17:16:53;2.43;;;2.23;;